Terminal Aerodrome Forecast
Issued by NWS

Home | Current Version | Previous Version | Text Only | Print | Product List | Glossary On
Versions: 1 2 3 4 5 6 7 8 9 10 11 12 13 14 15 16
000
FTUS41 KPBZ 192000 AAA
TAFMGW
TAF AMD
KMGW 192059Z 1921/2018 36010KT P6SM BKN250
     FM192300 04007KT P6SM BKN250
     FM200600 10004KT P6SM SKC=

USA.gov is the U.S. government's official web portal to all federal, state and local government web resources and services.